Killeen — WDF3110 — position and weather

sailwx.info

Track history (hours):
 
Tides and Currents Weather Stations Pressure Air Temp Water Temp Dewpoint Dewpoint Depression Visibility Wind Speed Wind Dir Waves Ship Positions

Killeen

Owner: C Ray Inc, San Diego, CA. More information available from US FCC via Universal Licensing System and Coast Guard Vessel Documentation Center.

Last reported at 2017-Apr-27 22:18 UTC. Time now 2017-Apr-30 11:11 UTC.
Position N 32°42' W 117°09'.

Length 18 m; draft 2.5 m.

Type: Towing. MMSI: 367435980.

Date/timePositionNaut miles runAvg speedWind from/ knotsBaromVisibWave heightAir tempDewpointWater temp
2017-Apr-27 22:18N 32°42' W 117°09'0 0.1
2017-Apr-27 21:59N 32°42' W 117°09'2 1.0
2017-Apr-27 20:18N 32°40' W 117°07'0 0.0
2017-Apr-27 19:50N 32°40' W 117°07'0 1.0
2017-Apr-27 19:26N 32°40' W 117°08'0 0.0
2017-Apr-27 18:54N 32°40' W 117°08'0 0.0
2017-Apr-27 18:25N 32°40' W 117°08'0 0.5
2017-Apr-27 18:00N 32°40' W 117°08'1 2.5
2017-Apr-27 17:28N 32°42' W 117°09'  
2017-Apr-20 21:40N 32°41' W 117°09'0 0.2
2017-Apr-20 21:27N 32°41' W 117°09'0 0.2
2017-Apr-20 20:58N 32°41' W 117°09'2 4.8
2017-Apr-20 20:30N 32°43' W 117°11'2 4.3
2017-Apr-20 20:00N 32°42' W 117°14'1 1.3
2017-Apr-20 19:30N 32°43' W 117°14'1 1.3
2017-Apr-20 19:00N 32°43' W 117°13'4 7.6
2017-Apr-20 18:30N 32°42' W 117°09'0 0.1
2017-Apr-20 18:00N 32°42' W 117°09'0 0.1
2017-Apr-20 17:29N 32°42' W 117°09'1 1.3
2017-Apr-20 17:00N 32°42' W 117°10'2 3.7
2017-Apr-20 16:30N 32°43' W 117°11'2 3.6
2017-Apr-20 16:00N 32°43' W 117°13'1 1.2
2017-Apr-20 15:30N 32°43' W 117°14'0 0.0
2017-Apr-18 22:06N 32°43' W 117°14'0 0.6
2017-Apr-18 22:00N 32°43' W 117°14'1 2.4
2017-Apr-18 21:30N 32°43' W 117°12'3 5.6
2017-Apr-18 20:54N 32°42' W 117°09'2 5.9
2017-Apr-18 20:30N 32°43' W 117°11'2 5.0
2017-Apr-18 20:01N 32°42' W 117°14'1 0.2
2017-Apr-18 16:51N 32°43' W 117°14'0 0.1
2017-Apr-18 16:30N 32°43' W 117°14'1 1.6
2017-Apr-18 16:00N 32°43' W 117°13'4 2.5
2017-Apr-18 14:32N 32°41' W 117°09'0 0.7
2017-Apr-18 14:24N 32°42' W 117°09'  
Track history (hours):
 
Tides and Currents Weather Stations Pressure Air Temp Water Temp Dewpoint Dewpoint Depression Visibility Wind Speed Wind Dir Waves Ship Positions

Killeen

Owner: C Ray Inc, San Diego, CA. More information available from US FCC via Universal Licensing System and Coast Guard Vessel Documentation Center.

Last reported at 2017-Apr-27 22:18 UTC. Time now 2017-Apr-30 11:11 UTC.
Position N 32°42' W 117°09'.

Length 18 m; draft 2.5 m.

Type: Towing. MMSI: 367435980.

Date/timePositionNaut miles runAvg speedWind from/ knotsBaromVisibWave heightAir tempDewpointWater temp
2017-Apr-27 22:18N 32°42' W 117°09'0 0.1
2017-Apr-27 21:59N 32°42' W 117°09'2 1.0
2017-Apr-27 20:18N 32°40' W 117°07'0 0.0
2017-Apr-27 19:50N 32°40' W 117°07'0 1.0
2017-Apr-27 19:26N 32°40' W 117°08'0 0.0
2017-Apr-27 18:54N 32°40' W 117°08'0 0.0
2017-Apr-27 18:25N 32°40' W 117°08'0 0.5
2017-Apr-27 18:00N 32°40' W 117°08'1 2.5
2017-Apr-27 17:28N 32°42' W 117°09'  
2017-Apr-20 21:40N 32°41' W 117°09'0 0.2
2017-Apr-20 21:27N 32°41' W 117°09'0 0.2
2017-Apr-20 20:58N 32°41' W 117°09'2 4.8
2017-Apr-20 20:30N 32°43' W 117°11'2 4.3
2017-Apr-20 20:00N 32°42' W 117°14'1 1.3
2017-Apr-20 19:30N 32°43' W 117°14'1 1.3
2017-Apr-20 19:00N 32°43' W 117°13'4 7.6
2017-Apr-20 18:30N 32°42' W 117°09'0 0.1
2017-Apr-20 18:00N 32°42' W 117°09'0 0.1
2017-Apr-20 17:29N 32°42' W 117°09'1 1.3
2017-Apr-20 17:00N 32°42' W 117°10'2 3.7
2017-Apr-20 16:30N 32°43' W 117°11'2 3.6
2017-Apr-20 16:00N 32°43' W 117°13'1 1.2
2017-Apr-20 15:30N 32°43' W 117°14'0 0.0
2017-Apr-18 22:06N 32°43' W 117°14'0 0.6
2017-Apr-18 22:00N 32°43' W 117°14'1 2.4
2017-Apr-18 21:30N 32°43' W 117°12'3 5.6
2017-Apr-18 20:54N 32°42' W 117°09'2 5.9
2017-Apr-18 20:30N 32°43' W 117°11'2 5.0
2017-Apr-18 20:01N 32°42' W 117°14'1 0.2
2017-Apr-18 16:51N 32°43' W 117°14'0 0.1
2017-Apr-18 16:30N 32°43' W 117°14'1 1.6
2017-Apr-18 16:00N 32°43' W 117°13'4 2.5
2017-Apr-18 14:32N 32°41' W 117°09'0 0.7
2017-Apr-18 14:24N 32°42' W 117°09'  

Dump ship's entire track history